N427RC KCRQ-L35
Flight info
| Callsign | N427RC |
|---|---|
| Flight time | N/A |
| Altitude | VFR/055 |
| Route | |
| Aircraft | C414/L-VGD/C |
Departure
| Time | 2026-05-05 02:21 |
|---|---|
| Airport | McClellan-Palomar Airport (KCRQ) |
Arrival
| Time | N/A |
|---|---|
| Airport | L35 |
| Time | Latitude | Longitude | Altitude | Speed | Heading |
|---|---|---|---|---|---|
| 2026-05-05 02:15 | 33.12781 | -117.27777 | 326 ft | 9 kts | 79° |
| 2026-05-05 02:15 | 33.12795 | -117.27689 | 327 ft | 12 kts | 79° |
| 2026-05-05 02:15 | 33.12813 | -117.27574 | 325 ft | 16 kts | 79° |
| 2026-05-05 02:16 | 33.12836 | -117.27434 | 326 ft | 18 kts | 79° |
| 2026-05-05 02:16 | 33.12855 | -117.27312 | 327 ft | 11 kts | 80° |
| 2026-05-05 02:16 | 33.12859 | -117.27299 | 327 ft | 0 kts | 52° |
| 2026-05-05 02:19 | 33.12870 | -117.27284 | 327 ft | 6 kts | 48° |
| 2026-05-05 02:19 | 33.12906 | -117.27238 | 328 ft | 8 kts | 38° |
| 2026-05-05 02:19 | 33.12947 | -117.27247 | 329 ft | 6 kts | 284° |
| 2026-05-05 02:20 | 33.12942 | -117.27284 | 329 ft | 8 kts | 257° |
| 2026-05-05 02:20 | 33.12941 | -117.27289 | 329 ft | 0 kts | 256° |
| 2026-05-05 02:20 | 33.12939 | -117.27297 | 329 ft | 8 kts | 257° |
| 2026-05-05 02:21 | 33.12893 | -117.27591 | 327 ft | 66 kts | 259° |
| 2026-05-05 02:21 | 33.12785 | -117.28267 | 435 ft | 92 kts | 260° |
| 2026-05-05 02:21 | 33.12654 | -117.29087 | 685 ft | 110 kts | 257° |
| 2026-05-05 02:21 | 33.12480 | -117.29968 | 1196 ft | 107 kts | 257° |
| 2026-05-05 02:22 | 33.12348 | -117.30816 | 1828 ft | 99 kts | 259° |
| 2026-05-05 02:22 | 33.12388 | -117.31585 | 2418 ft | 97 kts | 297° |
| 2026-05-05 02:22 | 33.13054 | -117.31989 | 2837 ft | 120 kts | 354° |
| 2026-05-05 02:22 | 33.13916 | -117.31676 | 3171 ft | 142 kts | 17° |
| 2026-05-05 02:23 | 33.14845 | -117.31363 | 3576 ft | 134 kts | 6° |
| 2026-05-05 02:23 | 33.15739 | -117.31201 | 3922 ft | 131 kts | 2° |
| 2026-05-05 02:23 | 33.16646 | -117.31217 | 4245 ft | 129 kts | 341° |
| 2026-05-05 02:23 | 33.17507 | -117.31457 | 4644 ft | 127 kts | 341° |
| 2026-05-05 02:24 | 33.18379 | -117.31674 | 4974 ft | 129 kts | 343° |
| 2026-05-05 02:24 | 33.19268 | -117.31891 | 5251 ft | 131 kts | 339° |
| 2026-05-05 02:24 | 33.20099 | -117.32274 | 5582 ft | 127 kts | 333° |
| 2026-05-05 02:24 | 33.20964 | -117.32658 | 5699 ft | 141 kts | 335° |
| 2026-05-05 02:25 | 33.21900 | -117.33119 | 5623 ft | 151 kts | 331° |
| 2026-05-05 02:25 | 33.22922 | -117.33573 | 5519 ft | 158 kts | 340° |
| 2026-05-05 02:25 | 33.24005 | -117.33824 | 5492 ft | 159 kts | 347° |
| 2026-05-05 02:25 | 33.25082 | -117.33987 | 5509 ft | 157 kts | 350° |
| 2026-05-05 02:26 | 33.26173 | -117.33785 | 5473 ft | 162 kts | 12° |
| 2026-05-05 02:26 | 33.27292 | -117.33412 | 5510 ft | 171 kts | 11° |
| 2026-05-05 02:26 | 33.28457 | -117.33047 | 5596 ft | 175 kts | 11° |
| 2026-05-05 02:26 | 33.29641 | -117.32679 | 5684 ft | 177 kts | 10° |
| 2026-05-05 02:27 | 33.30841 | -117.32311 | 5768 ft | 179 kts | 10° |
| 2026-05-05 02:27 | 33.32117 | -117.31934 | 5443 ft | 200 kts | 10° |
| 2026-05-05 02:27 | 33.33433 | -117.31406 | 5498 ft | 192 kts | 22° |
| 2026-05-05 02:27 | 33.34620 | -117.30732 | 5453 ft | 194 kts | 21° |
| 2026-05-05 02:28 | 33.35853 | -117.30105 | 5478 ft | 193 kts | 17° |
| 2026-05-05 02:28 | 33.37111 | -117.29535 | 5474 ft | 193 kts | 17° |
| 2026-05-05 02:28 | 33.38363 | -117.28941 | 5475 ft | 194 kts | 18° |
| 2026-05-05 02:28 | 33.39617 | -117.28329 | 5472 ft | 195 kts | 19° |
| 2026-05-05 02:29 | 33.40869 | -117.27704 | 5477 ft | 196 kts | 18° |
| 2026-05-05 02:29 | 33.42131 | -117.27090 | 5476 ft | 196 kts | 18° |
| 2026-05-05 02:29 | 33.43393 | -117.26479 | 5475 ft | 196 kts | 19° |
| 2026-05-05 02:29 | 33.44636 | -117.25875 | 5479 ft | 195 kts | 18° |
| 2026-05-05 02:30 | 33.45899 | -117.25253 | 5476 ft | 196 kts | 19° |
| 2026-05-05 02:30 | 33.47160 | -117.24645 | 5477 ft | 195 kts | 18° |
| 2026-05-05 02:30 | 33.48421 | -117.24030 | 5477 ft | 195 kts | 18° |
| 2026-05-05 02:30 | 33.49680 | -117.23414 | 5476 ft | 195 kts | 19° |
| 2026-05-05 02:31 | 33.50936 | -117.22798 | 5467 ft | 195 kts | 18° |
| 2026-05-05 02:31 | 33.52193 | -117.22186 | 5461 ft | 194 kts | 18° |
| 2026-05-05 02:31 | 33.53433 | -117.21584 | 5456 ft | 192 kts | 17° |
| 2026-05-05 02:31 | 33.54672 | -117.20977 | 5453 ft | 193 kts | 18° |
| 2026-05-05 02:32 | 33.55914 | -117.20366 | 5455 ft | 193 kts | 18° |
| 2026-05-05 02:32 | 33.57162 | -117.19756 | 5455 ft | 194 kts | 19° |
| 2026-05-05 02:32 | 33.58419 | -117.19142 | 5454 ft | 195 kts | 18° |
| 2026-05-05 02:32 | 33.59678 | -117.18526 | 5471 ft | 196 kts | 17° |
| 2026-05-05 02:33 | 33.60940 | -117.17908 | 5471 ft | 196 kts | 19° |
| 2026-05-05 02:33 | 33.62202 | -117.17286 | 5476 ft | 196 kts | 18° |
| 2026-05-05 02:33 | 33.63464 | -117.16673 | 5480 ft | 195 kts | 18° |
| 2026-05-05 02:33 | 33.64716 | -117.16061 | 5477 ft | 194 kts | 18° |
| 2026-05-05 02:34 | 33.65952 | -117.15456 | 5480 ft | 194 kts | 18° |
| 2026-05-05 02:34 | 33.67197 | -117.14841 | 5475 ft | 193 kts | 18° |
| 2026-05-05 02:34 | 33.68438 | -117.14232 | 5473 ft | 192 kts | 17° |
| 2026-05-05 02:34 | 33.69678 | -117.13627 | 5472 ft | 192 kts | 18° |
| 2026-05-05 02:35 | 33.70918 | -117.13017 | 5471 ft | 192 kts | 18° |
| 2026-05-05 02:35 | 33.72162 | -117.12409 | 5474 ft | 193 kts | 17° |
| 2026-05-05 02:35 | 33.73406 | -117.11791 | 5473 ft | 192 kts | 19° |
| 2026-05-05 02:35 | 33.74645 | -117.11186 | 5471 ft | 192 kts | 18° |
| 2026-05-05 02:36 | 33.75888 | -117.10578 | 5430 ft | 193 kts | 17° |
| 2026-05-05 02:36 | 33.77120 | -117.09973 | 5429 ft | 194 kts | 17° |
| 2026-05-05 02:36 | 33.78365 | -117.09359 | 5428 ft | 193 kts | 17° |
| 2026-05-05 02:36 | 33.79602 | -117.08750 | 5430 ft | 191 kts | 18° |
| 2026-05-05 02:37 | 33.80837 | -117.08142 | 5427 ft | 192 kts | 18° |
| 2026-05-05 02:37 | 33.82077 | -117.07531 | 5427 ft | 193 kts | 18° |
| 2026-05-05 02:37 | 33.83321 | -117.06917 | 5425 ft | 193 kts | 18° |
| 2026-05-05 02:37 | 33.84570 | -117.06308 | 5424 ft | 193 kts | 17° |
| 2026-05-05 02:38 | 33.85813 | -117.05694 | 5428 ft | 193 kts | 19° |
| 2026-05-05 02:38 | 33.87051 | -117.05081 | 5428 ft | 192 kts | 17° |
| 2026-05-05 02:38 | 33.88273 | -117.04481 | 5431 ft | 193 kts | 17° |
| 2026-05-05 02:38 | 33.89513 | -117.03868 | 5427 ft | 192 kts | 18° |
| 2026-05-05 02:39 | 33.90753 | -117.03256 | 5422 ft | 192 kts | 17° |
| 2026-05-05 02:39 | 33.91992 | -117.02649 | 5426 ft | 192 kts | 19° |
| 2026-05-05 02:39 | 33.93231 | -117.02036 | 5426 ft | 192 kts | 18° |
| 2026-05-05 02:39 | 33.94475 | -117.01421 | 5426 ft | 193 kts | 18° |
| 2026-05-05 02:40 | 33.95718 | -117.00805 | 5426 ft | 193 kts | 17° |
| 2026-05-05 02:40 | 33.96961 | -117.00192 | 5427 ft | 192 kts | 18° |
| 2026-05-05 02:40 | 33.98197 | -116.99580 | 5428 ft | 192 kts | 19° |
| 2026-05-05 02:40 | 33.99417 | -116.98977 | 5422 ft | 192 kts | 17° |
| 2026-05-05 02:41 | 34.00653 | -116.98379 | 5421 ft | 191 kts | 19° |
| 2026-05-05 02:41 | 34.01883 | -116.97752 | 5420 ft | 192 kts | 18° |
| 2026-05-05 02:41 | 34.03132 | -116.97153 | 5409 ft | 193 kts | 17° |
| 2026-05-05 02:41 | 34.04363 | -116.96546 | 5426 ft | 189 kts | 18° |
| 2026-05-05 02:42 | 34.05583 | -116.95939 | 5406 ft | 191 kts | 19° |
| 2026-05-05 02:42 | 34.06554 | -116.95442 | 6460 ft | 121 kts | 347° |
| 2026-05-05 02:42 | 34.07035 | -116.96236 | 6209 ft | 160 kts | 292° |
| 2026-05-05 02:42 | 34.07879 | -116.97009 | 6828 ft | 159 kts | 338° |
| 2026-05-05 02:43 | 34.08994 | -116.97259 | 7029 ft | 169 kts | 346° |
| 2026-05-05 02:43 | 34.10156 | -116.97497 | 7110 ft | 168 kts | 343° |
| 2026-05-05 02:43 | 34.11295 | -116.97801 | 7125 ft | 176 kts | 343° |
| 2026-05-05 02:43 | 34.12522 | -116.98098 | 7172 ft | 181 kts | 347° |
| 2026-05-05 02:44 | 34.13677 | -116.98374 | 7708 ft | 160 kts | 341° |
| 2026-05-05 02:44 | 34.14743 | -116.98665 | 7959 ft | 165 kts | 343° |
| 2026-05-05 02:44 | 34.15902 | -116.98961 | 7980 ft | 175 kts | 340° |
| 2026-05-05 02:44 | 34.17102 | -116.99268 | 8149 ft | 174 kts | 340° |
| 2026-05-05 02:45 | 34.18266 | -116.99593 | 8373 ft | 170 kts | 341° |
| 2026-05-05 02:45 | 34.19465 | -116.99903 | 8419 ft | 182 kts | 342° |
| 2026-05-05 02:45 | 34.20747 | -117.00132 | 8449 ft | 189 kts | 349° |
| 2026-05-05 02:45 | 34.22094 | -116.99865 | 8352 ft | 203 kts | 6° |
| 2026-05-05 02:46 | 34.23385 | -116.99236 | 8398 ft | 206 kts | 40° |
| 2026-05-05 02:46 | 34.24186 | -116.97758 | 8071 ft | 208 kts | 63° |
| 2026-05-05 02:46 | 34.24747 | -116.96272 | 7987 ft | 176 kts | 65° |
| 2026-05-05 02:46 | 34.25210 | -116.94946 | 7857 ft | 167 kts | 68° |
| 2026-05-05 02:47 | 34.25657 | -116.93655 | 7724 ft | 164 kts | 67° |
| 2026-05-05 02:47 | 34.26065 | -116.92467 | 7657 ft | 141 kts | 68° |
| 2026-05-05 02:47 | 34.26348 | -116.91381 | 7496 ft | 133 kts | 85° |
| 2026-05-05 02:47 | 34.26374 | -116.90316 | 7368 ft | 121 kts | 87° |
| 2026-05-05 02:48 | 34.26277 | -116.89325 | 7252 ft | 118 kts | 79° |
| 2026-05-05 02:48 | 34.26339 | -116.88311 | 7133 ft | 125 kts | 89° |
| 2026-05-05 02:48 | 34.26358 | -116.87251 | 6986 ft | 127 kts | 87° |
| 2026-05-05 02:48 | 34.26378 | -116.86183 | 6775 ft | 118 kts | 85° |
| 2026-05-05 02:49 | 34.26371 | -116.85278 | 6790 ft | 104 kts | 90° |
| 2026-05-05 02:49 | 34.26367 | -116.84380 | 6857 ft | 107 kts | 89° |
| 2026-05-05 02:49 | 34.26408 | -116.83507 | 6973 ft | 104 kts | 93° |
| 2026-05-05 02:49 | 34.26513 | -116.82620 | 6979 ft | 109 kts | 64° |
| 2026-05-05 02:50 | 34.26786 | -116.81724 | 7001 ft | 117 kts | 54° |
| 2026-05-05 02:50 | 34.27155 | -116.80855 | 7065 ft | 116 kts | 39° |
| 2026-05-05 02:50 | 34.27683 | -116.80116 | 7101 ft | 118 kts | 22° |
| 2026-05-05 02:50 | 34.28345 | -116.79532 | 7169 ft | 119 kts | 24° |
| 2026-05-05 02:51 | 34.29081 | -116.79081 | 7267 ft | 117 kts | 16° |
| 2026-05-05 02:51 | 34.29878 | -116.78809 | 7272 ft | 120 kts | 11° |
| 2026-05-05 02:51 | 34.30699 | -116.78627 | 7327 ft | 122 kts | 360° |
| 2026-05-05 02:51 | 34.31536 | -116.78427 | 7357 ft | 124 kts | 9° |
| 2026-05-05 02:52 | 34.32330 | -116.78060 | 7473 ft | 123 kts | 41° |
| 2026-05-05 02:52 | 34.32585 | -116.77083 | 7615 ft | 121 kts | 98° |
| 2026-05-05 02:52 | 34.32206 | -116.76238 | 7725 ft | 118 kts | 134° |
| 2026-05-05 02:52 | 34.31629 | -116.75506 | 9915 ft | 124 kts | 138° |
| 2026-05-05 02:53 | 34.31051 | -116.74856 | 9328 ft | 0 kts | 134° |
| 2026-05-05 02:53 | 34.30834 | -116.74572 | 8360 ft | 131 kts | 130° |
| 2026-05-05 02:53 | 34.30295 | -116.73693 | 8234 ft | 129 kts | 111° |
| 2026-05-05 02:53 | 34.29987 | -116.72751 | 8339 ft | 121 kts | 97° |
| 2026-05-05 02:54 | 34.29911 | -116.71734 | 8265 ft | 121 kts | 80° |
| 2026-05-05 02:54 | 34.29959 | -116.70702 | 8267 ft | 122 kts | 71° |
| 2026-05-05 02:54 | 34.30091 | -116.69746 | 8499 ft | 112 kts | 52° |
| 2026-05-05 02:54 | 34.30512 | -116.68879 | 8449 ft | 127 kts | 37° |
| 2026-05-05 02:55 | 34.31068 | -116.68032 | 8492 ft | 132 kts | 68° |
| 2026-05-05 02:55 | 34.31062 | -116.66959 | 8546 ft | 127 kts | 130° |
| 2026-05-05 02:55 | 34.30383 | -116.66485 | 8592 ft | 111 kts | 188° |
| 2026-05-05 02:55 | 34.29775 | -116.66928 | 8732 ft | 105 kts | 220° |
| 2026-05-05 02:56 | 34.29342 | -116.67583 | 8976 ft | 94 kts | 226° |
| 2026-05-05 02:56 | 34.28885 | -116.68101 | 9032 ft | 90 kts | 211° |
| 2026-05-05 02:56 | 34.28379 | -116.68542 | 8842 ft | 98 kts | 207° |
| 2026-05-05 02:56 | 34.27783 | -116.69035 | 8727 ft | 105 kts | 207° |
| 2026-05-05 02:57 | 34.27225 | -116.69598 | 8664 ft | 104 kts | 233° |
| 2026-05-05 02:57 | 34.26988 | -116.70424 | 8510 ft | 107 kts | 262° |
| 2026-05-05 02:57 | 34.26972 | -116.71291 | 8550 ft | 102 kts | 250° |
| 2026-05-05 02:57 | 34.26919 | -116.72144 | 8560 ft | 103 kts | 246° |
| 2026-05-05 02:58 | 34.26801 | -116.73003 | 8589 ft | 105 kts | 236° |
| 2026-05-05 02:58 | 34.26596 | -116.73874 | 8530 ft | 109 kts | 233° |
| 2026-05-05 02:58 | 34.26370 | -116.74721 | 8552 ft | 109 kts | 253° |
| 2026-05-05 02:58 | 34.26307 | -116.75647 | 8442 ft | 116 kts | 270° |
| 2026-05-05 02:59 | 34.26425 | -116.76653 | 8256 ft | 124 kts | 263° |
| 2026-05-05 02:59 | 34.26443 | -116.77692 | 8083 ft | 122 kts | 258° |
| 2026-05-05 02:59 | 34.26427 | -116.78686 | 7885 ft | 116 kts | 261° |
| 2026-05-05 02:59 | 34.26409 | -116.79664 | 7676 ft | 115 kts | 260° |
| 2026-05-05 03:00 | 34.26402 | -116.80621 | 7535 ft | 113 kts | 260° |
| 2026-05-05 03:00 | 34.26395 | -116.81579 | 7352 ft | 110 kts | 267° |
| 2026-05-05 03:00 | 34.26405 | -116.82445 | 7197 ft | 99 kts | 268° |
| 2026-05-05 03:00 | 34.26394 | -116.83260 | 7053 ft | 96 kts | 269° |
| 2026-05-05 03:01 | 34.26388 | -116.84066 | 6926 ft | 96 kts | 267° |
| 2026-05-05 03:01 | 34.26384 | -116.84876 | 6784 ft | 94 kts | 268° |
| 2026-05-05 03:01 | 34.26379 | -116.85513 | 6773 ft | 41 kts | 271° |
| 2026-05-05 03:01 | 34.26355 | -116.85638 | 6774 ft | 10 kts | 229° |
| 2026-05-05 03:02 | 34.26324 | -116.85640 | 6774 ft | 4 kts | 86° |
| 2026-05-05 03:02 | 34.26327 | -116.85582 | 6774 ft | 10 kts | 93° |
| 2026-05-05 03:02 | 34.26326 | -116.85482 | 6774 ft | 14 kts | 88° |
| 2026-05-05 03:02 | 34.26300 | -116.85367 | 6776 ft | 12 kts | 159° |
| 2026-05-05 03:03 | 34.26232 | -116.85361 | 6776 ft | 7 kts | 135° |
| 2026-05-05 03:03 | 34.26227 | -116.85342 | 6776 ft | 0 kts | 88° |